sensor_id;sensor_type;location;lat;lon;timestamp;temperature;humidity
5786;DHT22;2919;48.630;9.000;2024-03-02T00:01:11;4.00;99.90
5786;DHT22;2919;48.630;9.000;2024-03-02T00:03:37;4.10;99.90
5786;DHT22;2919;48.630;9.000;2024-03-02T00:06:03;4.20;99.90
5786;DHT22;2919;48.630;9.000;2024-03-02T00:08:29;4.30;99.90
5786;DHT22;2919;48.630;9.000;2024-03-02T00:10:59;4.20;99.90
5786;DHT22;2919;48.630;9.000;2024-03-02T00:13:25;4.30;99.90
5786;DHT22;2919;48.630;9.000;2024-03-02T00:15:55;4.40;99.90
5786;DHT22;2919;48.630;9.000;2024-03-02T00:18:31;4.50;99.90
5786;DHT22;2919;48.630;9.000;2024-03-02T00:20:58;4.70;99.90
5786;DHT22;2919;48.630;9.000;2024-03-02T00:23:24;4.80;99.90
5786;DHT22;2919;48.630;9.000;2024-03-02T00:25:53;4.80;99.90
5786;DHT22;2919;48.630;9.000;2024-03-02T00:28:23;4.90;99.90
5786;DHT22;2919;48.630;9.000;2024-03-02T00:31:04;4.90;99.90
5786;DHT22;2919;48.630;9.000;2024-03-02T00:33:38;5.10;99.90
5786;DHT22;2919;48.630;9.000;2024-03-02T00:36:06;5.10;99.90
5786;DHT22;2919;48.630;9.000;2024-03-02T00:38:32;5.10;99.90
5786;DHT22;2919;48.630;9.000;2024-03-02T00:40:59;5.10;99.90
5786;DHT22;2919;48.630;9.000;2024-03-02T00:46:11;5.10;99.90
5786;DHT22;2919;48.630;9.000;2024-03-02T00:48:36;5.10;99.90
5786;DHT22;2919;48.630;9.000;2024-03-02T00:51:05;5.20;99.90
5786;DHT22;2919;48.630;9.000;2024-03-02T00:53:31;5.30;99.90
5786;DHT22;2919;48.630;9.000;2024-03-02T00:56:01;5.30;99.90
5786;DHT22;2919;48.630;9.000;2024-03-02T00:58:26;5.20;99.90
5786;DHT22;2919;48.630;9.000;2024-03-02T01:00:52;5.30;99.90
5786;DHT22;2919;48.630;9.000;2024-03-02T01:03:17;5.30;99.90
5786;DHT22;2919;48.630;9.000;2024-03-02T01:05:44;5.30;99.90
5786;DHT22;2919;48.630;9.000;2024-03-02T01:08:11;5.30;99.90
5786;DHT22;2919;48.630;9.000;2024-03-02T01:10:36;5.20;99.90
5786;DHT22;2919;48.630;9.000;2024-03-02T01:13:02;5.30;99.90
5786;DHT22;2919;48.630;9.000;2024-03-02T01:15:28;5.30;99.90
5786;DHT22;2919;48.630;9.000;2024-03-02T01:17:53;5.30;99.90
5786;DHT22;2919;48.630;9.000;2024-03-02T01:20:19;5.20;99.90
5786;DHT22;2919;48.630;9.000;2024-03-02T01:22:44;5.30;99.90
5786;DHT22;2919;48.630;9.000;2024-03-02T01:25:10;5.30;99.90
5786;DHT22;2919;48.630;9.000;2024-03-02T01:27:35;5.20;99.90
5786;DHT22;2919;48.630;9.000;2024-03-02T01:30:01;5.20;99.90
5786;DHT22;2919;48.630;9.000;2024-03-02T01:32:26;5.30;99.90
5786;DHT22;2919;48.630;9.000;2024-03-02T01:34:52;5.30;99.90
5786;DHT22;2919;48.630;9.000;2024-03-02T01:37:17;5.20;99.90
5786;DHT22;2919;48.630;9.000;2024-03-02T01:39:43;5.20;99.90
5786;DHT22;2919;48.630;9.000;2024-03-02T01:42:09;5.20;99.90
5786;DHT22;2919;48.630;9.000;2024-03-02T01:44:36;5.20;99.90
5786;DHT22;2919;48.630;9.000;2024-03-02T01:47:01;5.20;99.90
5786;DHT22;2919;48.630;9.000;2024-03-02T01:49:27;5.10;99.90
5786;DHT22;2919;48.630;9.000;2024-03-02T01:51:52;5.10;99.90
5786;DHT22;2919;48.630;9.000;2024-03-02T01:54:18;5.10;99.90
5786;DHT22;2919;48.630;9.000;2024-03-02T01:56:43;5.10;99.90
5786;DHT22;2919;48.630;9.000;2024-03-02T01:59:09;5.00;99.90
5786;DHT22;2919;48.630;9.000;2024-03-02T02:01:35;5.00;99.90
5786;DHT22;2919;48.630;9.000;2024-03-02T02:04:00;5.00;99.90
5786;DHT22;2919;48.630;9.000;2024-03-02T02:06:26;4.90;99.90
5786;DHT22;2919;48.630;9.000;2024-03-02T02:08:51;5.00;99.90
5786;DHT22;2919;48.630;9.000;2024-03-02T02:11:17;4.90;99.90
5786;DHT22;2919;48.630;9.000;2024-03-02T02:13:43;5.10;99.90
5786;DHT22;2919;48.630;9.000;2024-03-02T02:16:08;5.00;99.90
5786;DHT22;2919;48.630;9.000;2024-03-02T02:18:34;5.10;99.90
5786;DHT22;2919;48.630;9.000;2024-03-02T02:21:01;5.00;99.90
5786;DHT22;2919;48.630;9.000;2024-03-02T02:23:27;5.00;99.90
5786;DHT22;2919;48.630;9.000;2024-03-02T02:25:52;4.90;99.90
5786;DHT22;2919;48.630;9.000;2024-03-02T02:28:18;4.90;99.90
5786;DHT22;2919;48.630;9.000;2024-03-02T02:30:43;4.80;99.90
5786;DHT22;2919;48.630;9.000;2024-03-02T02:33:09;4.80;99.90
5786;DHT22;2919;48.630;9.000;2024-03-02T02:35:34;4.80;99.90
5786;DHT22;2919;48.630;9.000;2024-03-02T02:38:01;4.80;99.90
5786;DHT22;2919;48.630;9.000;2024-03-02T02:40:27;4.60;99.90
5786;DHT22;2919;48.630;9.000;2024-03-02T02:42:56;4.60;99.90
5786;DHT22;2919;48.630;9.000;2024-03-02T02:45:22;4.60;99.90
5786;DHT22;2919;48.630;9.000;2024-03-02T02:47:48;4.70;99.90
5786;DHT22;2919;48.630;9.000;2024-03-02T02:50:13;4.60;99.90
5786;DHT22;2919;48.630;9.000;2024-03-02T02:52:40;4.70;99.90
5786;DHT22;2919;48.630;9.000;2024-03-02T02:55:10;4.70;99.90
5786;DHT22;2919;48.630;9.000;2024-03-02T02:57:37;4.70;99.90
5786;DHT22;2919;48.630;9.000;2024-03-02T03:00:12;4.70;99.90
5786;DHT22;2919;48.630;9.000;2024-03-02T03:02:49;4.70;99.90
5786;DHT22;2919;48.630;9.000;2024-03-02T03:05:15;4.70;99.90
5786;DHT22;2919;48.630;9.000;2024-03-02T03:07:41;4.70;99.90
5786;DHT22;2919;48.630;9.000;2024-03-02T03:10:07;4.70;99.90
5786;DHT22;2919;48.630;9.000;2024-03-02T03:12:34;4.70;99.90
5786;DHT22;2919;48.630;9.000;2024-03-02T03:15:00;4.70;99.90
5786;DHT22;2919;48.630;9.000;2024-03-02T03:17:26;4.70;99.90
5786;DHT22;2919;48.630;9.000;2024-03-02T03:19:52;4.70;99.90
5786;DHT22;2919;48.630;9.000;2024-03-02T03:22:17;4.70;99.90
5786;DHT22;2919;48.630;9.000;2024-03-02T03:24:43;4.70;99.90
5786;DHT22;2919;48.630;9.000;2024-03-02T03:27:09;4.60;99.90
5786;DHT22;2919;48.630;9.000;2024-03-02T03:29:36;4.70;99.90
5786;DHT22;2919;48.630;9.000;2024-03-02T03:32:02;4.80;99.90
5786;DHT22;2919;48.630;9.000;2024-03-02T03:34:27;4.70;99.90
5786;DHT22;2919;48.630;9.000;2024-03-02T03:36:54;4.70;99.90
5786;DHT22;2919;48.630;9.000;2024-03-02T03:39:20;4.80;99.90
5786;DHT22;2919;48.630;9.000;2024-03-02T03:41:45;4.90;99.90
5786;DHT22;2919;48.630;9.000;2024-03-02T03:44:11;4.80;99.90
5786;DHT22;2919;48.630;9.000;2024-03-02T03:46:36;4.80;99.90
5786;DHT22;2919;48.630;9.000;2024-03-02T03:49:02;4.80;99.90
5786;DHT22;2919;48.630;9.000;2024-03-02T03:51:29;4.80;99.90
5786;DHT22;2919;48.630;9.000;2024-03-02T03:53:55;4.80;99.90
5786;DHT22;2919;48.630;9.000;2024-03-02T03:56:21;4.70;99.90
5786;DHT22;2919;48.630;9.000;2024-03-02T03:58:46;4.70;99.90
5786;DHT22;2919;48.630;9.000;2024-03-02T04:01:12;4.70;99.90
5786;DHT22;2919;48.630;9.000;2024-03-02T04:03:38;4.70;99.90
5786;DHT22;2919;48.630;9.000;2024-03-02T04:06:04;4.80;99.90
5786;DHT22;2919;48.630;9.000;2024-03-02T04:08:29;4.80;99.90
5786;DHT22;2919;48.630;9.000;2024-03-02T04:10:55;4.80;99.90
5786;DHT22;2919;48.630;9.000;2024-03-02T04:13:20;4.90;99.90
5786;DHT22;2919;48.630;9.000;2024-03-02T04:15:46;4.90;99.90
5786;DHT22;2919;48.630;9.000;2024-03-02T04:18:11;4.80;99.90
5786;DHT22;2919;48.630;9.000;2024-03-02T04:20:37;4.80;99.90
5786;DHT22;2919;48.630;9.000;2024-03-02T04:23:02;4.80;99.90
5786;DHT22;2919;48.630;9.000;2024-03-02T04:25:28;4.80;99.90
5786;DHT22;2919;48.630;9.000;2024-03-02T04:27:53;4.70;99.90
5786;DHT22;2919;48.630;9.000;2024-03-02T04:30:19;4.60;99.90
5786;DHT22;2919;48.630;9.000;2024-03-02T04:32:45;4.60;99.90
5786;DHT22;2919;48.630;9.000;2024-03-02T04:35:12;4.60;99.90
5786;DHT22;2919;48.630;9.000;2024-03-02T04:37:38;4.60;99.90
5786;DHT22;2919;48.630;9.000;2024-03-02T04:40:04;4.50;99.90
5786;DHT22;2919;48.630;9.000;2024-03-02T04:42:33;4.40;99.90
5786;DHT22;2919;48.630;9.000;2024-03-02T04:44:59;4.20;99.90
5786;DHT22;2919;48.630;9.000;2024-03-02T04:47:24;4.10;99.90
5786;DHT22;2919;48.630;9.000;2024-03-02T04:49:50;4.00;99.90
5786;DHT22;2919;48.630;9.000;2024-03-02T04:52:16;4.00;99.90
5786;DHT22;2919;48.630;9.000;2024-03-02T04:54:41;4.00;99.90
5786;DHT22;2919;48.630;9.000;2024-03-02T04:57:25;3.90;99.90
5786;DHT22;2919;48.630;9.000;2024-03-02T04:59:51;3.70;99.90
5786;DHT22;2919;48.630;9.000;2024-03-02T05:02:16;3.70;99.90
5786;DHT22;2919;48.630;9.000;2024-03-02T05:04:42;3.60;99.90
5786;DHT22;2919;48.630;9.000;2024-03-02T05:07:07;3.60;99.90
5786;DHT22;2919;48.630;9.000;2024-03-02T05:09:33;3.50;99.90
5786;DHT22;2919;48.630;9.000;2024-03-02T05:11:58;3.40;99.90
5786;DHT22;2919;48.630;9.000;2024-03-02T05:14:30;3.30;99.90
5786;DHT22;2919;48.630;9.000;2024-03-02T05:16:55;3.30;99.90
5786;DHT22;2919;48.630;9.000;2024-03-02T05:19:21;3.30;99.90
5786;DHT22;2919;48.630;9.000;2024-03-02T05:21:46;3.20;99.90
5786;DHT22;2919;48.630;9.000;2024-03-02T05:24:12;3.20;99.90
5786;DHT22;2919;48.630;9.000;2024-03-02T05:26:37;3.20;99.90
5786;DHT22;2919;48.630;9.000;2024-03-02T05:29:03;3.10;99.90
5786;DHT22;2919;48.630;9.000;2024-03-02T05:31:28;3.00;99.90
5786;DHT22;2919;48.630;9.000;2024-03-02T05:33:54;3.20;99.90
5786;DHT22;2919;48.630;9.000;2024-03-02T05:36:19;3.00;99.90
5786;DHT22;2919;48.630;9.000;2024-03-02T05:38:46;3.20;99.90
5786;DHT22;2919;48.630;9.000;2024-03-02T05:41:11;3.30;99.90
5786;DHT22;2919;48.630;9.000;2024-03-02T05:43:37;3.30;99.90
5786;DHT22;2919;48.630;9.000;2024-03-02T05:46:02;3.40;99.90
5786;DHT22;2919;48.630;9.000;2024-03-02T05:48:28;3.40;99.90
5786;DHT22;2919;48.630;9.000;2024-03-02T05:50:54;3.40;99.90
5786;DHT22;2919;48.630;9.000;2024-03-02T05:53:19;3.50;99.90
5786;DHT22;2919;48.630;9.000;2024-03-02T05:55:45;3.40;99.90
5786;DHT22;2919;48.630;9.000;2024-03-02T05:58:10;3.40;99.90
5786;DHT22;2919;48.630;9.000;2024-03-02T06:00:55;3.40;99.90
5786;DHT22;2919;48.630;9.000;2024-03-02T06:03:20;3.50;99.90
5786;DHT22;2919;48.630;9.000;2024-03-02T06:05:46;3.40;99.90
5786;DHT22;2919;48.630;9.000;2024-03-02T06:08:14;3.40;99.90
5786;DHT22;2919;48.630;9.000;2024-03-02T06:10:40;3.40;99.90
5786;DHT22;2919;48.630;9.000;2024-03-02T06:13:05;3.50;99.90
5786;DHT22;2919;48.630;9.000;2024-03-02T06:15:31;3.60;99.90
5786;DHT22;2919;48.630;9.000;2024-03-02T06:17:56;3.50;99.90
5786;DHT22;2919;48.630;9.000;2024-03-02T06:20:22;3.40;99.90
5786;DHT22;2919;48.630;9.000;2024-03-02T06:22:47;3.40;99.90
5786;DHT22;2919;48.630;9.000;2024-03-02T06:25:13;3.40;99.90
5786;DHT22;2919;48.630;9.000;2024-03-02T06:27:38;3.40;99.90
5786;DHT22;2919;48.630;9.000;2024-03-02T06:30:04;3.40;99.90
5786;DHT22;2919;48.630;9.000;2024-03-02T06:32:30;3.40;99.90
5786;DHT22;2919;48.630;9.000;2024-03-02T06:34:56;3.40;99.90
5786;DHT22;2919;48.630;9.000;2024-03-02T06:37:21;3.40;99.90
5786;DHT22;2919;48.630;9.000;2024-03-02T06:39:47;3.70;99.90
5786;DHT22;2919;48.630;9.000;2024-03-02T06:42:12;3.80;99.90
5786;DHT22;2919;48.630;9.000;2024-03-02T06:44:38;3.90;99.90
5786;DHT22;2919;48.630;9.000;2024-03-02T06:47:04;4.10;99.90
5786;DHT22;2919;48.630;9.000;2024-03-02T06:49:30;4.10;99.90
5786;DHT22;2919;48.630;9.000;2024-03-02T06:51:55;4.20;99.90
5786;DHT22;2919;48.630;9.000;2024-03-02T06:54:21;4.20;99.90
5786;DHT22;2919;48.630;9.000;2024-03-02T06:56:46;4.40;99.90
5786;DHT22;2919;48.630;9.000;2024-03-02T06:59:12;4.30;99.90
5786;DHT22;2919;48.630;9.000;2024-03-02T07:01:37;4.50;99.90
5786;DHT22;2919;48.630;9.000;2024-03-02T07:04:03;4.40;99.90
5786;DHT22;2919;48.630;9.000;2024-03-02T07:06:28;4.40;99.90
5786;DHT22;2919;48.630;9.000;2024-03-02T07:08:54;4.40;99.90
5786;DHT22;2919;48.630;9.000;2024-03-02T07:11:19;4.40;99.90
5786;DHT22;2919;48.630;9.000;2024-03-02T07:13:45;4.50;99.90
5786;DHT22;2919;48.630;9.000;2024-03-02T07:16:10;4.60;99.90
5786;DHT22;2919;48.630;9.000;2024-03-02T07:18:35;4.70;99.90
5786;DHT22;2919;48.630;9.000;2024-03-02T07:21:07;4.70;99.90
5786;DHT22;2919;48.630;9.000;2024-03-02T07:23:32;4.80;99.90
5786;DHT22;2919;48.630;9.000;2024-03-02T07:25:58;5.00;99.90
5786;DHT22;2919;48.630;9.000;2024-03-02T07:28:25;4.90;99.90
5786;DHT22;2919;48.630;9.000;2024-03-02T07:31:01;5.00;99.90
5786;DHT22;2919;48.630;9.000;2024-03-02T07:33:27;4.90;99.90
5786;DHT22;2919;48.630;9.000;2024-03-02T07:35:54;5.00;99.90
5786;DHT22;2919;48.630;9.000;2024-03-02T07:38:20;5.00;99.90
5786;DHT22;2919;48.630;9.000;2024-03-02T07:40:45;5.10;99.90
5786;DHT22;2919;48.630;9.000;2024-03-02T07:43:11;5.10;99.90
5786;DHT22;2919;48.630;9.000;2024-03-02T07:45:36;5.10;99.90
5786;DHT22;2919;48.630;9.000;2024-03-02T07:48:02;5.20;99.90
5786;DHT22;2919;48.630;9.000;2024-03-02T07:50:29;5.30;99.90
5786;DHT22;2919;48.630;9.000;2024-03-02T07:52:55;5.40;99.90
5786;DHT22;2919;48.630;9.000;2024-03-02T07:55:21;5.50;99.90
5786;DHT22;2919;48.630;9.000;2024-03-02T07:57:46;5.70;99.90
5786;DHT22;2919;48.630;9.000;2024-03-02T08:00:12;5.90;99.90
5786;DHT22;2919;48.630;9.000;2024-03-02T08:02:38;6.20;99.90
5786;DHT22;2919;48.630;9.000;2024-03-02T08:05:04;6.70;99.90
5786;DHT22;2919;48.630;9.000;2024-03-02T08:07:29;7.00;99.90
5786;DHT22;2919;48.630;9.000;2024-03-02T08:09:55;7.40;99.90
5786;DHT22;2919;48.630;9.000;2024-03-02T08:12:20;7.80;99.90
5786;DHT22;2919;48.630;9.000;2024-03-02T08:14:48;8.20;99.90
5786;DHT22;2919;48.630;9.000;2024-03-02T08:17:14;8.60;99.90
5786;DHT22;2919;48.630;9.000;2024-03-02T08:19:40;8.70;99.90
5786;DHT22;2919;48.630;9.000;2024-03-02T08:22:05;9.50;99.90
5786;DHT22;2919;48.630;9.000;2024-03-02T08:24:31;10.00;99.90
5786;DHT22;2919;48.630;9.000;2024-03-02T08:26:59;11.00;99.90
5786;DHT22;2919;48.630;9.000;2024-03-02T08:29:24;11.70;97.90
5786;DHT22;2919;48.630;9.000;2024-03-02T08:31:50;11.30;98.70
5786;DHT22;2919;48.630;9.000;2024-03-02T08:34:16;11.90;98.10
5786;DHT22;2919;48.630;9.000;2024-03-02T08:36:41;12.50;96.90
5786;DHT22;2919;48.630;9.000;2024-03-02T08:39:08;13.20;96.20
5786;DHT22;2919;48.630;9.000;2024-03-02T08:41:41;13.20;95.00
5786;DHT22;2919;48.630;9.000;2024-03-02T08:44:07;13.30;95.40
5786;DHT22;2919;48.630;9.000;2024-03-02T08:46:32;13.00;95.40
5786;DHT22;2919;48.630;9.000;2024-03-02T08:48:58;13.10;95.90
5786;DHT22;2919;48.630;9.000;2024-03-02T08:51:23;13.80;94.10
5786;DHT22;2919;48.630;9.000;2024-03-02T08:53:49;13.70;94.00
5786;DHT22;2919;48.630;9.000;2024-03-02T08:56:14;14.50;93.00
5786;DHT22;2919;48.630;9.000;2024-03-02T08:58:41;13.50;93.20
5786;DHT22;2919;48.630;9.000;2024-03-02T09:01:07;14.20;93.10
5786;DHT22;2919;48.630;9.000;2024-03-02T09:03:34;14.40;93.00
5786;DHT22;2919;48.630;9.000;2024-03-02T09:06:00;14.60;92.40
5786;DHT22;2919;48.630;9.000;2024-03-02T09:08:26;14.70;92.70
5786;DHT22;2919;48.630;9.000;2024-03-02T09:10:51;14.80;93.00
5786;DHT22;2919;48.630;9.000;2024-03-02T09:13:17;14.70;91.70
5786;DHT22;2919;48.630;9.000;2024-03-02T09:15:43;14.20;92.00
5786;DHT22;2919;48.630;9.000;2024-03-02T09:18:09;14.20;91.80
5786;DHT22;2919;48.630;9.000;2024-03-02T09:20:35;14.10;92.50
5786;DHT22;2919;48.630;9.000;2024-03-02T09:23:01;14.10;92.30
5786;DHT22;2919;48.630;9.000;2024-03-02T09:25:26;14.10;93.10
5786;DHT22;2919;48.630;9.000;2024-03-02T09:27:52;14.10;92.80
5786;DHT22;2919;48.630;9.000;2024-03-02T09:30:17;14.10;92.70
5786;DHT22;2919;48.630;9.000;2024-03-02T09:32:43;13.70;93.10
5786;DHT22;2919;48.630;9.000;2024-03-02T09:35:08;13.20;93.80
5786;DHT22;2919;48.630;9.000;2024-03-02T09:37:34;12.70;92.90
5786;DHT22;2919;48.630;9.000;2024-03-02T09:40:01;12.10;93.50
5786;DHT22;2919;48.630;9.000;2024-03-02T09:42:26;11.70;94.80
5786;DHT22;2919;48.630;9.000;2024-03-02T09:44:52;11.80;95.70
5786;DHT22;2919;48.630;9.000;2024-03-02T09:47:18;11.70;94.30
5786;DHT22;2919;48.630;9.000;2024-03-02T09:49:44;11.60;94.50
5786;DHT22;2919;48.630;9.000;2024-03-02T09:52:10;11.20;94.30
5786;DHT22;2919;48.630;9.000;2024-03-02T09:54:36;11.30;94.90
5786;DHT22;2919;48.630;9.000;2024-03-02T09:57:02;11.10;94.30
5786;DHT22;2919;48.630;9.000;2024-03-02T09:59:28;11.10;94.60
5786;DHT22;2919;48.630;9.000;2024-03-02T10:02:04;11.10;95.80
5786;DHT22;2919;48.630;9.000;2024-03-02T10:04:32;11.20;96.50
5786;DHT22;2919;48.630;9.000;2024-03-02T10:09:40;11.20;96.00
5786;DHT22;2919;48.630;9.000;2024-03-02T10:12:11;11.30;96.80
5786;DHT22;2919;48.630;9.000;2024-03-02T10:14:40;11.50;95.60
5786;DHT22;2919;48.630;9.000;2024-03-02T10:17:13;11.50;95.50
5786;DHT22;2919;48.630;9.000;2024-03-02T10:19:39;11.60;95.40
5786;DHT22;2919;48.630;9.000;2024-03-02T10:22:06;11.60;94.90
5786;DHT22;2919;48.630;9.000;2024-03-02T10:24:42;11.70;94.60
5786;DHT22;2919;48.630;9.000;2024-03-02T10:27:15;11.80;94.50
5786;DHT22;2919;48.630;9.000;2024-03-02T10:29:41;11.70;93.80
5786;DHT22;2919;48.630;9.000;2024-03-02T10:32:10;12.00;94.00
5786;DHT22;2919;48.630;9.000;2024-03-02T10:34:42;12.10;93.50
5786;DHT22;2919;48.630;9.000;2024-03-02T10:37:08;12.00;93.00
5786;DHT22;2919;48.630;9.000;2024-03-02T10:39:35;12.10;93.00
5786;DHT22;2919;48.630;9.000;2024-03-02T10:42:05;12.20;93.20
5786;DHT22;2919;48.630;9.000;2024-03-02T10:44:31;12.30;93.70
5786;DHT22;2919;48.630;9.000;2024-03-02T10:47:03;12.30;92.80
5786;DHT22;2919;48.630;9.000;2024-03-02T10:49:30;12.40;92.80
5786;DHT22;2919;48.630;9.000;2024-03-02T10:52:00;12.60;93.60
5786;DHT22;2919;48.630;9.000;2024-03-02T10:54:25;12.60;93.70
5786;DHT22;2919;48.630;9.000;2024-03-02T10:56:53;12.80;93.30
5786;DHT22;2919;48.630;9.000;2024-03-02T11:01:55;12.70;92.70
5786;DHT22;2919;48.630;9.000;2024-03-02T11:04:21;13.00;93.30
5786;DHT22;2919;48.630;9.000;2024-03-02T11:06:50;12.90;92.90
5786;DHT22;2919;48.630;9.000;2024-03-02T11:09:20;13.00;92.40
5786;DHT22;2919;48.630;9.000;2024-03-02T11:11:53;12.90;92.00
5786;DHT22;2919;48.630;9.000;2024-03-02T11:14:24;13.20;93.10
5786;DHT22;2919;48.630;9.000;2024-03-02T11:16:50;13.30;92.10
5786;DHT22;2919;48.630;9.000;2024-03-02T11:19:17;13.10;92.00
5786;DHT22;2919;48.630;9.000;2024-03-02T11:21:43;13.00;92.60
5786;DHT22;2919;48.630;9.000;2024-03-02T11:26:49;13.60;92.30
5786;DHT22;2919;48.630;9.000;2024-03-02T11:32:02;13.30;91.70
5786;DHT22;2919;48.630;9.000;2024-03-02T11:34:31;13.50;91.60
5786;DHT22;2919;48.630;9.000;2024-03-02T11:36:58;13.40;91.40
5786;DHT22;2919;48.630;9.000;2024-03-02T11:39:25;13.20;91.50
5786;DHT22;2919;48.630;9.000;2024-03-02T11:41:51;13.50;92.40
5786;DHT22;2919;48.630;9.000;2024-03-02T11:44:16;13.30;91.60
5786;DHT22;2919;48.630;9.000;2024-03-02T11:46:45;13.30;91.50
5786;DHT22;2919;48.630;9.000;2024-03-02T11:49:14;13.60;92.30
5786;DHT22;2919;48.630;9.000;2024-03-02T11:51:53;13.70;92.10
5786;DHT22;2919;48.630;9.000;2024-03-02T11:54:26;14.00;92.40
5786;DHT22;2919;48.630;9.000;2024-03-02T11:56:54;14.10;91.10
5786;DHT22;2919;48.630;9.000;2024-03-02T11:59:20;14.30;91.20
5786;DHT22;2919;48.630;9.000;2024-03-02T12:01:47;14.80;91.10
5786;DHT22;2919;48.630;9.000;2024-03-02T12:04:13;14.70;91.00
5786;DHT22;2919;48.630;9.000;2024-03-02T12:06:39;14.50;91.70
5786;DHT22;2919;48.630;9.000;2024-03-02T12:09:05;14.80;90.70
5786;DHT22;2919;48.630;9.000;2024-03-02T12:11:30;15.10;90.30
5786;DHT22;2919;48.630;9.000;2024-03-02T12:13:56;15.20;90.90
5786;DHT22;2919;48.630;9.000;2024-03-02T12:16:25;15.30;89.20
5786;DHT22;2919;48.630;9.000;2024-03-02T12:18:51;15.30;89.90
5786;DHT22;2919;48.630;9.000;2024-03-02T12:21:16;15.20;90.30
5786;DHT22;2919;48.630;9.000;2024-03-02T12:23:43;15.20;91.00
5786;DHT22;2919;48.630;9.000;2024-03-02T12:26:09;15.00;88.30
5786;DHT22;2919;48.630;9.000;2024-03-02T12:28:34;15.00;89.30
5786;DHT22;2919;48.630;9.000;2024-03-02T12:31:00;15.20;90.30
5786;DHT22;2919;48.630;9.000;2024-03-02T12:33:25;15.10;89.00
5786;DHT22;2919;48.630;9.000;2024-03-02T12:35:52;15.40;88.90
5786;DHT22;2919;48.630;9.000;2024-03-02T12:38:18;15.40;87.60
5786;DHT22;2919;48.630;9.000;2024-03-02T12:40:44;15.50;87.60
5786;DHT22;2919;48.630;9.000;2024-03-02T12:43:12;15.70;84.70
5786;DHT22;2919;48.630;9.000;2024-03-02T12:45:38;15.50;85.20
5786;DHT22;2919;48.630;9.000;2024-03-02T12:48:04;15.50;84.10
5786;DHT22;2919;48.630;9.000;2024-03-02T12:50:30;15.50;84.30
5786;DHT22;2919;48.630;9.000;2024-03-02T12:52:56;15.60;83.90
5786;DHT22;2919;48.630;9.000;2024-03-02T12:55:22;15.60;86.00
5786;DHT22;2919;48.630;9.000;2024-03-02T12:57:50;15.70;84.00
5786;DHT22;2919;48.630;9.000;2024-03-02T13:00:18;15.60;85.50
5786;DHT22;2919;48.630;9.000;2024-03-02T13:02:46;15.30;87.10
5786;DHT22;2919;48.630;9.000;2024-03-02T13:05:12;15.40;84.90
5786;DHT22;2919;48.630;9.000;2024-03-02T13:07:38;15.40;83.50
5786;DHT22;2919;48.630;9.000;2024-03-02T13:10:05;15.40;84.10
5786;DHT22;2919;48.630;9.000;2024-03-02T13:12:31;15.30;83.40
5786;DHT22;2919;48.630;9.000;2024-03-02T13:14:58;15.10;82.80
5786;DHT22;2919;48.630;9.000;2024-03-02T13:17:24;15.00;85.10
5786;DHT22;2919;48.630;9.000;2024-03-02T13:19:57;14.80;85.20
5786;DHT22;2919;48.630;9.000;2024-03-02T13:22:23;14.70;87.00
5786;DHT22;2919;48.630;9.000;2024-03-02T13:24:50;14.60;86.90
5786;DHT22;2919;48.630;9.000;2024-03-02T13:27:16;14.50;86.50
5786;DHT22;2919;48.630;9.000;2024-03-02T13:29:42;14.50;89.60
5786;DHT22;2919;48.630;9.000;2024-03-02T13:32:07;14.80;86.50
5786;DHT22;2919;48.630;9.000;2024-03-02T13:34:35;14.90;88.60
5786;DHT22;2919;48.630;9.000;2024-03-02T13:37:01;14.60;88.40
5786;DHT22;2919;48.630;9.000;2024-03-02T13:39:26;14.60;86.00
5786;DHT22;2919;48.630;9.000;2024-03-02T13:41:52;14.30;87.20
5786;DHT22;2919;48.630;9.000;2024-03-02T13:44:22;14.30;89.90
5786;DHT22;2919;48.630;9.000;2024-03-02T13:46:48;14.00;90.10
5786;DHT22;2919;48.630;9.000;2024-03-02T13:49:14;13.90;90.30
5786;DHT22;2919;48.630;9.000;2024-03-02T13:51:40;13.80;89.60
5786;DHT22;2919;48.630;9.000;2024-03-02T13:54:05;13.60;90.50
5786;DHT22;2919;48.630;9.000;2024-03-02T13:56:31;13.50;91.10
5786;DHT22;2919;48.630;9.000;2024-03-02T13:58:58;13.40;91.30
5786;DHT22;2919;48.630;9.000;2024-03-02T14:01:24;13.20;91.50
5786;DHT22;2919;48.630;9.000;2024-03-02T14:03:49;13.10;91.60
5786;DHT22;2919;48.630;9.000;2024-03-02T14:06:15;13.20;91.50
5786;DHT22;2919;48.630;9.000;2024-03-02T14:08:40;13.20;91.90
5786;DHT22;2919;48.630;9.000;2024-03-02T14:11:10;13.30;91.60
5786;DHT22;2919;48.630;9.000;2024-03-02T14:13:40;13.40;91.10
5786;DHT22;2919;48.630;9.000;2024-03-02T14:16:06;13.50;91.00
5786;DHT22;2919;48.630;9.000;2024-03-02T14:18:32;13.70;91.50
5786;DHT22;2919;48.630;9.000;2024-03-02T14:20:57;13.60;90.70
5786;DHT22;2919;48.630;9.000;2024-03-02T14:23:23;13.60;91.10
5786;DHT22;2919;48.630;9.000;2024-03-02T14:25:48;13.70;90.00
5786;DHT22;2919;48.630;9.000;2024-03-02T14:28:15;13.80;90.10
5786;DHT22;2919;48.630;9.000;2024-03-02T14:30:41;13.80;90.20
5786;DHT22;2919;48.630;9.000;2024-03-02T14:33:07;13.90;90.60
5786;DHT22;2919;48.630;9.000;2024-03-02T14:35:32;13.70;90.60
5786;DHT22;2919;48.630;9.000;2024-03-02T14:37:58;13.80;90.50
5786;DHT22;2919;48.630;9.000;2024-03-02T14:40:24;13.80;90.60
5786;DHT22;2919;48.630;9.000;2024-03-02T14:42:52;13.80;90.30
5786;DHT22;2919;48.630;9.000;2024-03-02T14:45:18;13.80;90.10
5786;DHT22;2919;48.630;9.000;2024-03-02T14:47:43;13.90;89.90
5786;DHT22;2919;48.630;9.000;2024-03-02T14:50:09;14.00;90.30
5786;DHT22;2919;48.630;9.000;2024-03-02T14:52:35;14.00;90.40
5786;DHT22;2919;48.630;9.000;2024-03-02T14:55:01;14.10;91.50
5786;DHT22;2919;48.630;9.000;2024-03-02T14:57:28;14.10;90.50
5786;DHT22;2919;48.630;9.000;2024-03-02T14:59:53;14.10;89.80
5786;DHT22;2919;48.630;9.000;2024-03-02T15:02:20;14.10;89.70
5786;DHT22;2919;48.630;9.000;2024-03-02T15:04:45;14.10;88.90
5786;DHT22;2919;48.630;9.000;2024-03-02T15:07:13;14.00;89.10
5786;DHT22;2919;48.630;9.000;2024-03-02T15:09:38;14.00;89.50
5786;DHT22;2919;48.630;9.000;2024-03-02T15:12:04;14.00;88.60
5786;DHT22;2919;48.630;9.000;2024-03-02T15:14:31;14.00;89.00
5786;DHT22;2919;48.630;9.000;2024-03-02T15:16:57;13.90;90.00
5786;DHT22;2919;48.630;9.000;2024-03-02T15:19:22;13.80;90.30
5786;DHT22;2919;48.630;9.000;2024-03-02T15:21:48;13.70;90.80
5786;DHT22;2919;48.630;9.000;2024-03-02T15:24:14;13.50;91.30
5786;DHT22;2919;48.630;9.000;2024-03-02T15:26:39;13.40;90.70
5786;DHT22;2919;48.630;9.000;2024-03-02T15:29:04;13.30;91.00
5786;DHT22;2919;48.630;9.000;2024-03-02T15:31:30;13.20;91.30
5786;DHT22;2919;48.630;9.000;2024-03-02T15:33:55;13.10;91.90
5786;DHT22;2919;48.630;9.000;2024-03-02T15:36:22;13.10;92.50
5786;DHT22;2919;48.630;9.000;2024-03-02T15:38:48;13.00;92.80
5786;DHT22;2919;48.630;9.000;2024-03-02T15:41:13;12.90;92.80
5786;DHT22;2919;48.630;9.000;2024-03-02T15:43:39;12.90;93.00
5786;DHT22;2919;48.630;9.000;2024-03-02T15:46:06;12.80;92.80
5786;DHT22;2919;48.630;9.000;2024-03-02T15:48:32;12.80;92.00
5786;DHT22;2919;48.630;9.000;2024-03-02T15:50:58;12.80;92.50
5786;DHT22;2919;48.630;9.000;2024-03-02T15:53:23;12.80;93.00
5786;DHT22;2919;48.630;9.000;2024-03-02T15:55:49;12.80;92.90
5786;DHT22;2919;48.630;9.000;2024-03-02T15:58:15;12.80;92.70
5786;DHT22;2919;48.630;9.000;2024-03-02T16:00:40;12.70;92.60
5786;DHT22;2919;48.630;9.000;2024-03-02T16:03:06;12.70;93.00
5786;DHT22;2919;48.630;9.000;2024-03-02T16:05:31;12.60;92.70
5786;DHT22;2919;48.630;9.000;2024-03-02T16:07:57;12.60;92.60
5786;DHT22;2919;48.630;9.000;2024-03-02T16:10:22;12.50;92.30
5786;DHT22;2919;48.630;9.000;2024-03-02T16:12:49;12.50;92.80
5786;DHT22;2919;48.630;9.000;2024-03-02T16:15:15;12.40;93.30
5786;DHT22;2919;48.630;9.000;2024-03-02T16:17:40;12.40;92.80